Time;durP1;ratioP1;P1;durP2;ratioP2;P2;SDS_P1;SDS_P2;PMS_P1;PMS_P2;Temp;Humidity;BMP_temperature;BMP_pressure;BME280_temperature;BME280_humidity;BME280_pressure;Samples;Min_cycle;Max_cycle;Signal;HPM_P1;HPM_P2
2021/12/28 00:00:47;;;;;;;89.90;29.90;;;;;;;-8.28;95.25;98801.84;103690;1312;24097;-30
2021/12/28 00:03:14;;;;;;;79.90;26.80;;;;;;;-8.28;95.24;98802.67;103849;1312;22827;-30
2021/12/28 00:05:40;;;;;;;69.00;24.10;;;;;;;-8.29;95.24;98794.74;103840;1315;24170;-26
2021/12/28 00:08:05;;;;;;;74.20;19.40;;;;;;;-8.29;95.17;98797.70;103859;1308;24134;-25
2021/12/28 00:10:31;;;;;;;79.50;23.90;;;;;;;-8.28;95.16;98797.66;103813;1315;24162;-26
2021/12/28 00:12:57;;;;;;;69.50;23.40;;;;;;;-8.27;95.34;98800.34;103705;1311;24121;-30
2021/12/28 00:20:18;;;;;;;94.10;28.30;;;;;;;-8.23;95.27;98791.95;103725;1312;24193;-24
2021/12/28 00:22:44;;;;;;;124.40;33.70;;;;;;;-8.22;95.15;98794.15;103742;1300;22718;-29
2021/12/28 00:25:11;;;;;;;83.40;26.50;;;;;;;-8.21;95.07;98794.95;103669;1311;22447;-25
2021/12/28 00:27:38;;;;;;;85.30;24.90;;;;;;;-8.17;95.23;98793.68;103807;1312;24111;-25
2021/12/28 00:30:05;;;;;;;95.50;23.20;;;;;;;-8.14;95.25;98795.57;103839;1312;25350;-25
2021/12/28 00:32:31;;;;;;;66.70;20.30;;;;;;;-8.08;95.51;98793.67;103585;1312;24121;-28
2021/12/28 00:34:57;;;;;;;95.90;28.50;;;;;;;-8.03;95.41;98799.90;103811;1315;23868;-26
2021/12/28 00:37:22;;;;;;;80.60;23.90;;;;;;;-7.98;95.18;98801.00;103649;1314;24092;-27
2021/12/28 00:39:48;;;;;;;83.40;23.70;;;;;;;-7.90;95.44;98802.26;103692;1310;24223;-25
2021/12/28 00:42:14;;;;;;;99.90;28.70;;;;;;;-7.78;95.57;98797.70;103665;1314;24189;-25
2021/12/28 00:44:40;;;;;;;97.70;28.70;;;;;;;-7.64;95.73;98790.88;103677;1312;24219;-25
2021/12/28 00:47:06;;;;;;;73.10;23.10;;;;;;;-7.55;95.72;98782.00;103723;1312;24144;-25
2021/12/28 00:49:32;;;;;;;101.20;29.30;;;;;;;-7.49;95.76;98782.98;103721;1314;24210;-28
2021/12/28 00:51:58;;;;;;;92.50;25.50;;;;;;;-7.42;95.54;98777.33;103522;1310;24301;-25
2021/12/28 00:54:24;;;;;;;79.30;27.10;;;;;;;-7.33;95.52;98772.77;103720;1312;24622;-26
2021/12/28 00:56:50;;;;;;;105.80;28.50;;;;;;;-7.30;95.63;98772.36;103731;1307;24170;-25
2021/12/28 00:59:16;;;;;;;77.70;24.40;;;;;;;-7.26;95.28;98769.35;103765;1312;24238;-28
2021/12/28 01:01:42;;;;;;;81.10;23.20;;;;;;;-7.17;95.38;98768.59;103761;1312;24302;-26
2021/12/28 01:04:08;;;;;;;94.30;27.90;;;;;;;-7.11;95.42;98769.86;103731;1312;24191;-29
2021/12/28 01:06:33;;;;;;;58.80;23.90;;;;;;;-7.03;95.10;98763.30;103704;1314;24206;-25
2021/12/28 01:08:59;;;;;;;82.20;22.30;;;;;;;-6.95;95.08;98762.06;103701;1312;24261;-27
2021/12/28 01:11:25;;;;;;;85.50;24.10;;;;;;;-6.88;94.93;98754.66;103728;1313;24233;-29
2021/12/28 01:13:52;;;;;;;74.30;21.90;;;;;;;-6.82;94.83;98750.58;103725;1308;24151;-25
2021/12/28 01:16:18;;;;;;;70.30;25.00;;;;;;;-6.77;94.92;98747.16;103676;1306;24166;-25
2021/12/28 01:18:44;;;;;;;83.90;28.90;;;;;;;-6.73;94.50;98746.34;103749;1308;24248;-28
2021/12/28 01:21:10;;;;;;;67.70;24.00;;;;;;;-6.69;94.38;98745.52;103730;1307;24232;-28
2021/12/28 01:23:36;;;;;;;51.40;18.90;;;;;;;-6.67;94.01;98740.67;103692;1314;24337;-29
2021/12/28 01:26:02;;;;;;;78.80;25.50;;;;;;;-6.66;94.01;98738.55;103680;1304;24177;-29
2021/12/28 01:28:28;;;;;;;92.90;28.30;;;;;;;-6.63;93.74;98737.78;103701;1312;24101;-26
2021/12/28 01:30:54;;;;;;;89.00;23.40;;;;;;;-6.64;93.73;98736.98;103670;1305;24356;-29
2021/12/28 01:33:20;;;;;;;82.50;24.70;;;;;;;-6.65;93.17;98734.31;103675;1313;24158;-29
2021/12/28 01:35:46;;;;;;;65.60;21.90;;;;;;;-6.70;93.45;98733.73;103693;1312;24135;-26
2021/12/28 01:38:12;;;;;;;71.50;24.10;;;;;;;-6.74;93.20;98725.52;103760;1312;24308;-29
2021/12/28 01:40:40;;;;;;;65.80;22.40;;;;;;;-6.76;93.50;98721.09;103745;1313;24148;-29
2021/12/28 01:43:11;;;;;;;78.20;22.60;;;;;;;-6.79;93.20;98720.10;103709;1310;24249;-29
2021/12/28 01:45:39;;;;;;;79.20;23.10;;;;;;;-6.84;92.81;98719.08;103709;1314;22526;-26
2021/12/28 01:48:06;;;;;;;59.40;22.10;;;;;;;-6.85;93.01;98719.48;103691;1307;22439;-26
2021/12/28 01:50:32;;;;;;;78.40;23.10;;;;;;;-6.87;92.95;98716.61;103717;1308;24250;-26
2021/12/28 01:52:58;;;;;;;78.70;23.90;;;;;;;-6.90;92.86;98713.55;103631;1312;24160;-26
2021/12/28 01:55:23;;;;;;;51.80;15.60;;;;;;;-6.92;92.63;98705.30;103663;1308;24242;-29
2021/12/28 01:57:49;;;;;;;60.90;21.40;;;;;;;-6.95;92.78;98707.98;103745;1314;22605;-26
2021/12/28 02:00:16;;;;;;;71.30;22.30;;;;;;;-6.97;93.06;98711.95;103729;1314;24131;-29
2021/12/28 02:02:42;;;;;;;66.00;21.00;;;;;;;-6.99;92.98;98702.67;103683;1312;24121;-25
2021/12/28 02:05:08;;;;;;;73.20;22.20;;;;;;;-6.99;93.03;98710.65;103695;1312;24368;-26
2021/12/28 02:07:34;;;;;;;59.30;17.80;;;;;;;-7.01;93.11;98712.53;103738;1314;22438;-26
2021/12/28 02:09:59;;;;;;;69.40;21.00;;;;;;;-6.99;92.94;98711.38;103692;1314;24187;-26
2021/12/28 02:12:29;;;;;;;58.60;20.20;;;;;;;-6.99;93.04;98712.05;103708;1308;24217;-25
2021/12/28 02:14:55;;;;;;;82.60;21.00;;;;;;;-6.99;93.05;98707.02;103687;1313;22716;-29
2021/12/28 02:17:21;;;;;;;74.40;24.30;;;;;;;-6.99;92.86;98706.49;103743;1312;24244;-26
2021/12/28 02:19:48;;;;;;;77.80;22.60;;;;;;;-7.01;92.55;98707.14;103702;1301;24295;-26
2021/12/28 02:22:16;;;;;;;73.00;20.60;;;;;;;-6.99;92.63;98710.81;103679;1310;24185;-26
2021/12/28 02:24:42;;;;;;;77.70;20.50;;;;;;;-6.92;92.74;98706.38;103631;1305;24272;-26
2021/12/28 02:27:08;;;;;;;73.80;21.80;;;;;;;-6.88;92.73;98702.93;103638;1311;24134;-29
2021/12/28 02:29:34;;;;;;;76.90;18.80;;;;;;;-6.80;92.64;98705.38;103680;1305;24115;-26
2021/12/28 02:32:00;;;;;;;74.70;25.00;;;;;;;-6.70;92.91;98702.91;103621;1312;24232;-29
2021/12/28 02:34:26;;;;;;;61.10;21.10;;;;;;;-6.64;92.63;98701.29;103719;1314;24159;-26
2021/12/28 02:36:52;;;;;;;45.00;14.70;;;;;;;-6.55;92.78;98706.63;103732;1312;24255;-26
2021/12/28 02:39:18;;;;;;;62.80;20.70;;;;;;;-6.49;92.42;98701.14;103722;1310;24203;-29
2021/12/28 02:41:44;;;;;;;65.30;22.80;;;;;;;-6.42;92.02;98697.56;103700;1312;24151;-26
2021/12/28 02:44:10;;;;;;;65.70;23.20;;;;;;;-6.33;91.96;98696.91;103683;1312;24287;-26
2021/12/28 02:46:36;;;;;;;74.10;21.20;;;;;;;-6.28;91.48;98688.68;103674;1302;22482;-29
2021/12/28 02:49:02;;;;;;;58.10;19.90;;;;;;;-6.21;91.33;98685.30;103704;1314;24251;-29
2021/12/28 02:51:28;;;;;;;59.20;21.60;;;;;;;-6.15;91.38;98680.65;103667;1314;24159;-28
2021/12/28 02:53:54;;;;;;;72.60;20.40;;;;;;;-6.08;91.60;98684.38;103677;1314;24163;-29
2021/12/28 02:56:20;;;;;;;68.90;20.60;;;;;;;-6.01;91.53;98688.71;103756;1311;24240;-29
2021/12/28 02:58:48;;;;;;;59.80;20.80;;;;;;;-5.98;91.16;98682.91;103649;1312;22737;-26
2021/12/28 03:01:19;;;;;;;61.50;21.10;;;;;;;-5.90;91.66;98683.67;103751;1314;24255;-29
2021/12/28 03:03:47;;;;;;;72.40;25.20;;;;;;;-5.81;91.37;98665.25;103675;1313;24233;-29
2021/12/28 03:06:14;;;;;;;74.00;22.50;;;;;;;-5.76;91.15;98656.40;103658;1312;24121;-26
2021/12/28 03:08:43;;;;;;;67.80;25.20;;;;;;;-5.75;91.12;98657.90;103719;1314;24127;-29
2021/12/28 03:11:09;;;;;;;68.20;23.70;;;;;;;-5.75;90.73;98659.59;103802;1315;22646;-26
2021/12/28 03:13:38;;;;;;;60.90;22.90;;;;;;;-5.73;90.67;98650.72;103673;1314;24294;-26
2021/12/28 03:16:04;;;;;;;70.20;24.20;;;;;;;-5.70;90.29;98648.61;103720;1311;25255;-26
2021/12/28 03:18:30;;;;;;;57.00;19.50;;;;;;;-5.68;90.55;98638.33;103662;1315;24283;-26
2021/12/28 03:20:57;;;;;;;61.60;20.70;;;;;;;-5.64;90.37;98633.52;103712;1314;24243;-26
2021/12/28 03:23:25;;;;;;;74.20;25.70;;;;;;;-5.66;90.44;98638.17;103771;1313;24162;-29
2021/12/28 03:25:51;;;;;;;82.70;25.20;;;;;;;-5.67;90.51;98637.42;103707;1314;24243;-26
2021/12/28 03:28:18;;;;;;;55.30;19.30;;;;;;;-5.68;90.58;98642.86;103736;1310;24261;-26
2021/12/28 03:30:44;;;;;;;69.00;24.10;;;;;;;-5.69;90.56;98648.87;103577;1314;24172;-26
2021/12/28 03:33:10;;;;;;;70.70;25.00;;;;;;;-5.68;90.46;98650.05;103691;1313;24339;-29
2021/12/28 03:35:36;;;;;;;72.50;24.60;;;;;;;-5.67;90.38;98639.45;103734;1307;24159;-26
2021/12/28 03:38:02;;;;;;;104.60;27.70;;;;;;;-5.66;90.31;98639.92;103747;1312;24153;-28
2021/12/28 03:40:28;;;;;;;79.30;25.90;;;;;;;-5.67;90.43;98640.48;103522;1298;22592;-29
2021/12/28 03:42:54;;;;;;;76.10;25.30;;;;;;;-5.64;90.63;98637.52;103713;1313;24165;-26
2021/12/28 03:45:20;;;;;;;68.50;22.80;;;;;;;-5.58;90.75;98643.92;103667;1313;24247;-29
2021/12/28 03:47:45;;;;;;;100.80;31.60;;;;;;;-5.54;90.88;98646.60;103696;1310;24189;-29
2021/12/28 03:50:12;;;;;;;147.90;43.00;;;;;;;-5.53;90.65;98642.45;103736;1310;24168;-29
2021/12/28 03:52:38;;;;;;;135.40;40.70;;;;;;;-5.49;90.57;98645.13;103663;1314;24214;-29
2021/12/28 03:55:05;;;;;;;110.80;31.00;;;;;;;-5.49;90.71;98645.83;103720;1312;24207;-26
2021/12/28 03:57:31;;;;;;;71.50;22.90;;;;;;;-5.50;90.90;98641.52;103705;1313;24172;-26
2021/12/28 03:59:57;;;;;;;75.10;24.60;;;;;;;-5.49;90.82;98640.21;103366;1312;454046;-29
2021/12/28 04:02:23;;;;;;;68.50;25.80;;;;;;;-5.47;90.92;98637.33;103700;1311;22819;-29
2021/12/28 04:04:49;;;;;;;56.40;20.70;;;;;;;-5.46;90.70;98640.20;103650;1310;24134;-26
2021/12/28 04:07:20;;;;;;;65.10;22.30;;;;;;;-5.45;90.77;98638.56;103736;1312;22560;-29
2021/12/28 04:12:29;;;;;;;65.10;19.90;;;;;;;-5.43;90.75;98636.50;103664;1311;24222;-36
2021/12/28 04:14:55;;;;;;;53.40;21.80;;;;;;;-5.44;90.61;98641.27;103738;1313;24288;-26
2021/12/28 04:17:21;;;;;;;61.20;23.20;;;;;;;-5.44;90.77;98646.35;103695;1314;24140;-29
2021/12/28 04:19:50;;;;;;;68.90;23.70;;;;;;;-5.47;90.68;98642.00;103733;1315;24193;-26
2021/12/28 04:22:16;;;;;;;79.00;27.20;;;;;;;-5.49;90.83;98639.41;103698;1313;24153;-29
2021/12/28 04:24:42;;;;;;;66.50;23.60;;;;;;;-5.54;90.69;98639.73;103722;1310;24147;-29
2021/12/28 04:27:08;;;;;;;71.10;19.90;;;;;;;-5.62;90.88;98641.92;103655;1314;24154;-26
2021/12/28 04:29:34;;;;;;;68.00;23.30;;;;;;;-5.66;90.95;98636.61;103710;1314;24344;-26
2021/12/28 04:32:00;;;;;;;66.40;22.40;;;;;;;-5.68;90.80;98633.58;103680;1310;24250;-26
2021/12/28 04:34:26;;;;;;;63.90;23.90;;;;;;;-5.66;91.15;98628.58;103717;1308;24162;-27
2021/12/28 04:36:52;;;;;;;70.00;23.50;;;;;;;-5.63;91.33;98622.61;103695;1315;24147;-25
2021/12/28 04:39:17;;;;;;;71.30;24.00;;;;;;;-5.57;91.34;98619.77;103675;1314;24267;-26
2021/12/28 04:41:44;;;;;;;87.00;26.80;;;;;;;-5.53;91.52;98614.42;103722;1314;22546;-29
2021/12/28 04:44:12;;;;;;;113.00;30.80;;;;;;;-5.51;91.44;98606.36;103694;1310;24181;-29
2021/12/28 04:46:38;;;;;;;93.80;29.70;;;;;;;-5.48;91.27;98600.40;103739;1308;24242;-29
2021/12/28 04:49:04;;;;;;;116.60;41.00;;;;;;;-5.46;91.44;98596.05;103676;1314;22454;-26
2021/12/28 04:51:30;;;;;;;107.50;39.00;;;;;;;-5.42;91.11;98589.28;103466;1304;24180;-29
2021/12/28 04:53:59;;;;;;;83.60;32.10;;;;;;;-5.45;91.29;98591.80;103622;1310;24269;-29
2021/12/28 04:56:25;;;;;;;102.50;33.10;;;;;;;-5.52;91.23;98592.30;103675;1304;24285;-29
2021/12/28 04:58:50;;;;;;;80.40;22.30;;;;;;;-5.54;91.27;98591.42;103662;1305;24121;-29
2021/12/28 05:01:16;;;;;;;77.50;25.00;;;;;;;-5.59;91.47;98588.71;103760;1305;24261;-29
2021/12/28 05:03:42;;;;;;;79.90;25.10;;;;;;;-5.65;91.87;98583.52;103700;1310;24214;-28
2021/12/28 05:06:08;;;;;;;83.00;27.20;;;;;;;-5.68;91.93;98590.20;103690;1304;24160;-29
2021/12/28 05:08:34;;;;;;;80.90;27.60;;;;;;;-5.73;91.89;98588.34;103721;1314;24266;-26
2021/12/28 05:11:00;;;;;;;78.80;27.70;;;;;;;-5.75;92.05;98591.29;103733;1314;22820;-29
2021/12/28 05:13:25;;;;;;;75.30;24.50;;;;;;;-5.78;92.32;98586.43;103772;1313;24182;-28
2021/12/28 05:15:53;;;;;;;63.40;22.50;;;;;;;-5.82;92.41;98581.82;103717;1314;24211;-26
2021/12/28 05:18:19;;;;;;;80.90;23.00;;;;;;;-5.83;92.20;98587.48;103718;1314;24154;-26
2021/12/28 05:20:45;;;;;;;82.60;26.30;;;;;;;-5.87;92.31;98582.23;103737;1307;24172;-26
2021/12/28 05:23:11;;;;;;;58.50;23.00;;;;;;;-5.90;92.62;98580.65;103588;1303;24245;-26
2021/12/28 05:25:38;;;;;;;96.00;34.30;;;;;;;-5.91;92.66;98578.67;103516;1310;24161;-27
2021/12/28 05:28:04;;;;;;;70.60;27.00;;;;;;;-5.93;92.81;98578.36;103539;1313;24360;-29
2021/12/28 05:30:30;;;;;;;90.80;29.00;;;;;;;-5.94;92.78;98571.42;103730;1302;24141;-29
2021/12/28 05:32:56;;;;;;;84.00;26.00;;;;;;;-5.96;93.05;98572.11;103716;1307;24146;-27
2021/12/28 05:35:22;;;;;;;91.40;26.30;;;;;;;-5.97;93.08;98570.05;103700;1314;24268;-27
2021/12/28 05:37:48;;;;;;;85.50;28.90;;;;;;;-5.97;92.82;98567.67;103625;1314;24283;-25
2021/12/28 05:40:14;;;;;;;87.40;26.80;;;;;;;-5.99;93.25;98567.29;103681;1314;24121;-26
2021/12/28 05:42:40;;;;;;;69.90;24.90;;;;;;;-6.01;93.17;98567.09;103661;1301;22449;-25
2021/12/28 05:45:07;;;;;;;66.10;24.70;;;;;;;-6.02;93.22;98562.48;103686;1316;24233;-26
2021/12/28 05:47:33;;;;;;;76.70;25.10;;;;;;;-6.01;93.25;98557.65;103732;1300;22777;-26
2021/12/28 05:49:59;;;;;;;71.90;27.70;;;;;;;-6.02;93.52;98555.66;103681;1310;24162;-25
2021/12/28 05:52:25;;;;;;;80.90;25.40;;;;;;;-6.00;93.50;98553.38;103751;1314;24100;-27
2021/12/28 05:54:50;;;;;;;72.70;24.30;;;;;;;-5.99;93.62;98554.17;103505;1313;24274;-29
2021/12/28 05:57:17;;;;;;;62.60;24.40;;;;;;;-5.98;93.44;98558.16;103704;1314;24301;-25
2021/12/28 05:59:43;;;;;;;84.80;26.40;;;;;;;-5.96;93.70;98564.64;103510;1312;22574;-26
2021/12/28 06:02:09;;;;;;;68.20;23.50;;;;;;;-5.96;93.59;98562.70;103705;1314;24278;-29
2021/12/28 06:04:34;;;;;;;79.00;28.10;;;;;;;-5.93;93.68;98566.61;103733;1314;24395;-26
2021/12/28 06:07:00;;;;;;;107.40;29.40;;;;;;;-5.93;93.29;98566.98;103688;1314;24167;-26
2021/12/28 06:09:26;;;;;;;68.50;26.40;;;;;;;-5.92;93.45;98565.54;103700;1312;24253;-26
2021/12/28 06:11:52;;;;;;;63.00;22.40;;;;;;;-5.92;93.62;98559.26;103734;1315;24301;-26
2021/12/28 06:14:18;;;;;;;85.90;28.60;;;;;;;-5.90;93.53;98565.67;103704;1313;24121;-29
2021/12/28 06:16:44;;;;;;;78.20;26.00;;;;;;;-5.89;93.62;98568.21;103697;1311;24226;-29
2021/12/28 06:19:10;;;;;;;78.90;24.70;;;;;;;-5.89;93.44;98570.11;103677;1313;24174;-29
2021/12/28 06:21:36;;;;;;;67.80;26.30;;;;;;;-5.90;93.55;98569.02;103489;1310;24250;-26
2021/12/28 06:24:03;;;;;;;125.90;38.40;;;;;;;-5.92;93.61;98569.52;103732;1310;24145;-36
2021/12/28 06:26:30;;;;;;;96.30;37.30;;;;;;;-5.92;93.84;98571.95;103713;1307;24239;-26
2021/12/28 06:28:56;;;;;;;123.60;38.30;;;;;;;-5.92;93.73;98573.21;103698;1304;24282;-29
2021/12/28 06:31:23;;;;;;;78.80;29.70;;;;;;;-5.94;93.87;98574.94;103730;1314;24236;-29
2021/12/28 06:33:49;;;;;;;111.40;34.90;;;;;;;-5.97;93.80;98576.05;103699;1314;24248;-29
2021/12/28 06:36:15;;;;;;;93.10;29.80;;;;;;;-5.96;94.09;98576.67;103714;1311;24272;-29
2021/12/28 06:38:41;;;;;;;111.30;34.70;;;;;;;-5.97;94.17;98578.80;103742;1310;24158;-26
2021/12/28 06:41:08;;;;;;;79.40;28.40;;;;;;;-5.96;94.16;98577.34;103726;1314;24224;-29
2021/12/28 06:43:35;;;;;;;99.70;31.70;;;;;;;-5.95;94.14;98576.08;103706;1313;24214;-29
2021/12/28 06:46:01;;;;;;;117.90;36.30;;;;;;;-5.97;94.20;98577.02;103687;1314;22460;-29
2021/12/28 06:48:27;;;;;;;121.90;33.90;;;;;;;-5.97;94.30;98574.28;103672;1314;24301;-28
2021/12/28 06:50:53;;;;;;;123.20;36.70;;;;;;;-5.98;94.20;98573.80;103651;1301;24186;-25
2021/12/28 06:53:19;;;;;;;114.80;32.90;;;;;;;-5.98;94.43;98571.88;103672;1314;24159;-25
2021/12/28 06:55:45;;;;;;;83.70;26.60;;;;;;;-5.97;94.36;98573.59;103713;1314;24212;-29
2021/12/28 06:58:11;;;;;;;60.90;23.70;;;;;;;-5.97;94.44;98569.06;103799;1310;24146;-29
2021/12/28 07:00:38;;;;;;;74.70;22.80;;;;;;;-5.99;94.43;98569.16;103746;1314;22468;-27
2021/12/28 07:03:05;;;;;;;119.00;33.60;;;;;;;-5.97;94.72;98566.29;103748;1314;24251;-25
2021/12/28 07:05:31;;;;;;;121.70;31.70;;;;;;;-5.97;94.74;98564.33;103672;1314;25156;-25
2021/12/28 07:07:56;;;;;;;97.90;31.50;;;;;;;-5.93;94.91;98561.77;103712;1307;24229;-25
2021/12/28 07:10:22;;;;;;;92.60;30.00;;;;;;;-5.90;94.69;98557.85;103702;1304;24248;-29
2021/12/28 07:12:50;;;;;;;85.10;27.30;;;;;;;-5.88;94.76;98555.94;103735;1314;24217;-25
2021/12/28 07:15:17;;;;;;;92.70;33.60;;;;;;;-5.83;94.76;98553.73;103519;1313;24247;-25
2021/12/28 07:17:43;;;;;;;93.50;29.00;;;;;;;-5.80;94.89;98551.38;103733;1305;24362;-30
2021/12/28 07:20:10;;;;;;;127.30;30.90;;;;;;;-5.74;94.96;98550.05;103495;1303;22442;-26
2021/12/28 07:22:36;;;;;;;88.70;29.30;;;;;;;-5.70;94.75;98545.34;103671;1310;24159;-29
2021/12/28 07:25:02;;;;;;;89.30;29.30;;;;;;;-5.64;94.55;98541.79;103677;1314;24220;-30
2021/12/28 07:27:29;;;;;;;106.90;33.10;;;;;;;-5.55;94.68;98544.98;103762;1313;24102;-29
2021/12/28 07:29:55;;;;;;;91.10;29.00;;;;;;;-5.50;94.20;98547.56;103707;1314;24373;-26
2021/12/28 07:32:21;;;;;;;94.90;33.40;;;;;;;-5.46;94.13;98547.73;103674;1314;24249;-30
2021/12/28 07:34:47;;;;;;;109.10;28.70;;;;;;;-5.43;93.94;98551.31;103761;1313;24151;-27
2021/12/28 07:37:13;;;;;;;92.90;26.50;;;;;;;-5.34;93.90;98553.33;103719;1311;24271;-27
2021/12/28 07:39:39;;;;;;;67.10;22.80;;;;;;;-5.25;94.05;98554.20;103693;1305;24121;-26
2021/12/28 07:42:05;;;;;;;77.30;24.90;;;;;;;-5.13;93.68;98546.12;103697;1311;24153;-30
2021/12/28 07:44:31;;;;;;;94.20;29.60;;;;;;;-5.01;93.40;98545.02;103772;1311;24237;-30
2021/12/28 07:46:57;;;;;;;91.60;32.20;;;;;;;-4.96;93.05;98546.48;103781;1311;24121;-26
2021/12/28 07:49:23;;;;;;;72.60;23.40;;;;;;;-4.82;93.07;98550.16;103683;1313;24264;-26
2021/12/28 07:51:49;;;;;;;94.40;30.10;;;;;;;-4.68;92.57;98552.73;103747;1313;24193;-30
2021/12/28 07:54:15;;;;;;;84.90;27.90;;;;;;;-4.57;92.30;98547.99;103438;1314;24301;-26
2021/12/28 07:56:41;;;;;;;68.40;22.50;;;;;;;-4.49;92.07;98541.54;103698;1310;24371;-30
2021/12/28 07:59:07;;;;;;;87.20;30.90;;;;;;;-4.44;92.17;98539.10;103805;1314;24174;-29
2021/12/28 08:01:33;;;;;;;105.70;35.40;;;;;;;-4.35;91.51;98536.98;103716;1302;22487;-29
2021/12/28 08:03:59;;;;;;;87.20;29.00;;;;;;;-4.20;91.31;98539.27;103754;1314;24085;-30
2021/12/28 08:06:25;;;;;;;87.60;28.60;;;;;;;-4.13;91.08;98541.13;103745;1314;24249;-30
2021/12/28 08:08:51;;;;;;;92.40;27.90;;;;;;;-4.08;91.24;98534.58;103740;1310;24149;-30
2021/12/28 08:11:17;;;;;;;111.00;38.90;;;;;;;-4.09;90.52;98536.11;103705;1304;24075;-27
2021/12/28 08:13:43;;;;;;;103.30;35.50;;;;;;;-4.05;90.70;98532.78;103721;1314;24387;-30
2021/12/28 08:16:09;;;;;;;85.00;32.50;;;;;;;-4.07;90.65;98528.75;103540;1313;22569;-27
2021/12/28 08:18:35;;;;;;;105.90;33.30;;;;;;;-4.02;90.58;98523.05;103725;1314;24120;-30
2021/12/28 08:21:00;;;;;;;94.20;34.60;;;;;;;-3.96;90.75;98527.30;103841;1311;24302;-30
2021/12/28 08:23:26;;;;;;;148.70;46.80;;;;;;;-3.93;90.85;98528.63;103755;1313;24252;-30
2021/12/28 08:25:52;;;;;;;159.80;56.20;;;;;;;-3.91;90.45;98528.12;103706;1314;24162;-26
2021/12/28 08:28:19;;;;;;;113.30;40.40;;;;;;;-3.89;90.21;98522.23;103720;1314;24178;-26
2021/12/28 08:30:45;;;;;;;113.50;39.50;;;;;;;-3.81;90.26;98516.65;103696;1313;24189;-26
2021/12/28 08:33:11;;;;;;;127.60;46.10;;;;;;;-3.76;90.05;98515.70;103730;1314;24110;-30
2021/12/28 08:35:39;;;;;;;188.40;59.80;;;;;;;-3.69;90.06;98515.32;103839;1310;24253;-26
2021/12/28 08:38:07;;;;;;;168.60;64.10;;;;;;;-3.61;89.89;98516.90;103756;1310;24144;-26
2021/12/28 08:40:33;;;;;;;149.50;59.70;;;;;;;-3.49;89.79;98513.39;103552;1307;24141;-27
2021/12/28 08:42:59;;;;;;;309.80;140.20;;;;;;;-3.35;89.86;98513.98;103462;1307;24136;-30
2021/12/28 08:45:25;;;;;;;271.60;114.80;;;;;;;-3.23;89.74;98510.16;103712;1314;24183;-29
2021/12/28 08:47:51;;;;;;;191.00;85.90;;;;;;;-3.12;89.08;98509.05;103724;1314;24253;-26
2021/12/28 08:50:18;;;;;;;136.80;64.20;;;;;;;-3.02;88.26;98509.61;103705;1314;24158;-27
2021/12/28 08:52:43;;;;;;;118.80;50.60;;;;;;;-2.91;87.54;98508.63;103656;1312;24408;-30
2021/12/28 08:55:09;;;;;;;106.10;41.40;;;;;;;-2.77;87.42;98507.98;103771;1313;24152;-30
2021/12/28 08:57:36;;;;;;;104.00;41.70;;;;;;;-2.65;86.63;98501.51;103747;1314;24122;-30
2021/12/28 09:00:06;;;;;;;104.50;39.70;;;;;;;-2.50;86.74;98490.36;103753;1314;24162;-26
2021/12/28 09:02:32;;;;;;;83.70;31.70;;;;;;;-2.36;86.17;98486.23;103577;1306;24231;-27
2021/12/28 09:04:58;;;;;;;89.70;35.00;;;;;;;-2.25;85.94;98486.02;103711;1314;24263;-29
2021/12/28 09:07:24;;;;;;;89.70;34.30;;;;;;;-2.22;85.07;98488.35;103711;1310;24193;-26
2021/12/28 09:09:50;;;;;;;98.80;39.20;;;;;;;-2.10;85.44;98492.85;103773;1310;24148;-30
2021/12/28 09:12:16;;;;;;;89.60;33.70;;;;;;;-1.95;85.01;98488.55;103805;1314;24161;-27
2021/12/28 09:14:42;;;;;;;132.10;47.90;;;;;;;-1.81;84.12;98486.95;103501;1313;24366;-30
2021/12/28 09:17:08;;;;;;;77.20;30.60;;;;;;;-1.64;83.64;98483.77;103725;1314;24152;-28
2021/12/28 09:19:34;;;;;;;83.70;32.70;;;;;;;-1.59;83.46;98484.67;103747;1314;24150;-30
2021/12/28 09:22:00;;;;;;;148.70;51.50;;;;;;;-1.48;83.28;98488.55;103719;1310;24302;-29
2021/12/28 09:24:26;;;;;;;89.40;35.30;;;;;;;-1.51;81.65;98485.91;103721;1304;24153;-30
2021/12/28 09:26:52;;;;;;;88.30;33.40;;;;;;;-1.46;82.02;98484.23;103717;1313;24262;-26
2021/12/28 09:29:18;;;;;;;92.40;34.90;;;;;;;-1.52;82.88;98488.09;103492;1314;22734;-30
2021/12/28 09:31:44;;;;;;;93.60;33.20;;;;;;;-1.44;83.03;98480.86;103721;1313;24158;-30
2021/12/28 09:34:10;;;;;;;81.10;29.50;;;;;;;-1.21;82.68;98476.08;103699;1314;24255;-30
2021/12/28 09:36:40;;;;;;;117.50;35.20;;;;;;;-1.04;82.20;98468.83;103751;1314;24147;-26
2021/12/28 09:39:07;;;;;;;101.70;39.00;;;;;;;-1.02;81.88;98464.79;103744;1312;24256;-30
2021/12/28 09:41:33;;;;;;;90.80;36.40;;;;;;;-0.89;82.03;98466.03;103763;1312;24249;-29
2021/12/28 09:43:59;;;;;;;96.40;38.20;;;;;;;-0.79;81.78;98458.18;103745;1312;24173;-30
2021/12/28 09:46:24;;;;;;;95.80;39.80;;;;;;;-0.57;81.33;98450.75;103531;1312;24093;-30
2021/12/28 09:48:50;;;;;;;81.70;32.50;;;;;;;-0.42;81.40;98448.98;103542;1312;24144;-30
2021/12/28 09:51:17;;;;;;;163.70;49.90;;;;;;;-0.37;81.29;98444.23;103722;1310;24269;-27
2021/12/28 09:53:43;;;;;;;430.40;121.60;;;;;;;-0.32;82.09;98445.83;103749;1312;24159;-30
2021/12/28 09:56:09;;;;;;;151.00;50.30;;;;;;;-0.39;81.94;98446.89;103675;1311;22487;-30
2021/12/28 09:58:36;;;;;;;99.70;40.10;;;;;;;-0.45;81.29;98451.73;103773;1312;24229;-30
2021/12/28 10:01:03;;;;;;;214.70;76.50;;;;;;;-0.40;81.53;98452.65;103739;1314;24148;-26
2021/12/28 10:03:29;;;;;;;187.90;51.30;;;;;;;-0.34;82.84;98453.25;103725;1312;24153;-30
2021/12/28 10:05:55;;;;;;;109.20;42.30;;;;;;;-0.29;83.11;98451.58;103773;1307;24324;-27
2021/12/28 10:08:23;;;;;;;93.70;32.30;;;;;;;-0.25;82.04;98450.12;103706;1313;24086;-30
2021/12/28 10:10:49;;;;;;;83.60;40.20;;;;;;;-0.29;81.04;98451.89;103749;1313;24260;-30
2021/12/28 10:13:19;;;;;;;93.80;37.80;;;;;;;-0.23;81.95;98451.80;103767;1312;24338;-31
2021/12/28 10:15:46;;;;;;;118.90;35.90;;;;;;;-0.13;82.37;98454.88;103756;1311;24098;-31
2021/12/28 10:18:12;;;;;;;87.70;34.90;;;;;;;-0.01;82.08;98453.19;103686;1312;24204;-30
2021/12/28 10:20:43;;;;;;;151.10;60.90;;;;;;;-0.01;80.37;98451.62;103730;1312;24208;-27
2021/12/28 10:23:11;;;;;;;193.50;65.40;;;;;;;0.03;80.61;98449.86;103778;1307;24136;-30
2021/12/28 10:25:39;;;;;;;162.20;51.10;;;;;;;0.17;81.20;98446.08;103725;1314;24212;-30
2021/12/28 10:28:08;;;;;;;226.30;74.10;;;;;;;0.23;79.88;98443.07;103726;1312;24285;-26
2021/12/28 10:30:39;;;;;;;144.30;55.60;;;;;;;0.25;79.42;98434.74;104026;1313;22752;-31
2021/12/28 10:33:08;;;;;;;119.10;46.80;;;;;;;0.32;78.38;98432.81;104005;1310;24123;-28
2021/12/28 10:35:36;;;;;;;80.10;31.30;;;;;;;0.41;79.56;98424.89;103900;1314;24271;-28
2021/12/28 10:38:05;;;;;;;94.90;37.20;;;;;;;0.47;79.91;98424.59;104019;1310;24135;-30
2021/12/28 10:40:32;;;;;;;90.80;37.20;;;;;;;0.37;78.72;98417.70;103978;1314;24156;-27
2021/12/28 10:43:00;;;;;;;83.90;35.10;;;;;;;0.41;78.91;98416.23;103937;1312;23942;-27
2021/12/28 10:45:28;;;;;;;86.60;35.80;;;;;;;0.46;78.38;98412.50;103766;1305;22543;-26
2021/12/28 10:47:55;;;;;;;122.00;43.60;;;;;;;0.50;79.22;98407.92;103692;1310;24103;-30
2021/12/28 10:50:27;;;;;;;121.40;41.60;;;;;;;0.56;79.06;98406.80;103740;1314;22467;-30
2021/12/28 10:53:01;;;;;;;120.10;40.80;;;;;;;0.58;78.69;98404.60;103774;1312;24151;-27
2021/12/28 10:55:27;;;;;;;151.90;40.30;;;;;;;0.64;77.88;98401.65;103734;1314;22968;-26
2021/12/28 10:57:53;;;;;;;103.10;39.40;;;;;;;0.66;78.76;98395.85;103677;1311;24238;-30
2021/12/28 11:00:25;;;;;;;106.40;39.40;;;;;;;0.62;79.01;98397.29;103713;1312;24260;-26
2021/12/28 11:02:56;;;;;;;99.00;35.70;;;;;;;0.63;78.91;98393.02;103720;1315;22525;-26
2021/12/28 11:05:29;;;;;;;88.10;35.00;;;;;;;0.68;78.35;98384.60;103500;1312;24708;-31
2021/12/28 11:07:56;;;;;;;111.10;38.00;;;;;;;0.79;78.34;98383.42;103722;1314;23919;-30
2021/12/28 11:10:26;;;;;;;167.50;47.90;;;;;;;0.86;78.15;98376.02;103776;1311;24279;-30